| time (UTC) | temp F | wind direction | speed knots | gust knots | rain 1hr in | rain 24hr in | rain mn in | humidity % | barometer mb |
| 20260507151501 | 54 | 63 | 0.0 | 0.9 | 0.05 | 0.47 | 0.47 | 93 | 1011.7 |
| 20260507150958 | 54 | 70 | 1.7 | 1.7 | 0.00 | 0.46 | 0.46 | 92 | 1011.5 |
| 20260507150455 | 55 | 48 | 1.7 | 2.6 | 0.00 | 0.46 | 0.46 | 94 | 1011.9 |
| 20260507145951 | 55 | 68 | 1.7 | 1.7 | 0.00 | 0.46 | 0.46 | 94 | 1012.2 |
| 20260507145447 | 55 | 76 | 0.0 | 0.9 | 0.00 | 0.46 | 0.46 | 94 | 1011.9 |
| 20260507144944 | 55 | 71 | 0.9 | 0.9 | 0.07 | 0.46 | 0.46 | 94 | 1012.1 |
| 20260507144441 | 55 | 59 | 1.7 | 2.6 | 0.07 | 0.46 | 0.46 | 94 | 1012.1 |
| 20260507143938 | 55 | 47 | 0.9 | 1.7 | 0.00 | 0.45 | 0.45 | 95 | 1012.1 |
| 20260507143436 | 55 | 49 | 0.9 | 0.9 | 0.00 | 0.45 | 0.45 | 95 | 1011.9 |
| 20260507142932 | 55 | 97 | 1.7 | 3.5 | 0.00 | 0.45 | 0.45 | 95 | 1012.0 |
| 20260507142428 | 56 | 47 | 0.9 | 1.7 | 0.00 | 0.45 | 0.45 | 95 | 1011.8 |
| 20260507141925 | 56 | 82 | 3.5 | 3.5 | 0.07 | 0.45 | 0.45 | 95 | 1011.8 |
| 20260507141421 | 56 | 67 | 0.0 | 0.9 | 0.07 | 0.45 | 0.45 | 94 | 1011.8 |
| 20260507140918 | 56 | 51 | 0.9 | 1.7 | 0.05 | 0.44 | 0.44 | 94 | 1011.8 |
| 20260507140414 | 57 | 36 | 1.7 | 2.6 | 0.12 | 0.44 | 0.44 | 94 | 1012.0 |
| 20260507135913 | 57 | 64 | 1.7 | 1.7 | 0.07 | 0.43 | 0.43 | 95 | 1011.8 |
| 20260507135409 | 58 | 53 | 1.7 | 2.6 | 0.07 | 0.43 | 0.43 | 95 | 1011.7 |
| 20260507134906 | 58 | 82 | 0.0 | 0.9 | 0.00 | 0.42 | 0.42 | 96 | 1011.6 |
| 20260507134402 | 58 | 76 | 0.0 | 0.9 | 0.00 | 0.42 | 0.42 | 95 | 1011.7 |
| 20260507133858 | 58 | 78 | 0.9 | 0.9 | 0.00 | 0.42 | 0.42 | 95 | 1011.5 |
| 20260507133354 | 58 | 6 | 0.9 | 0.9 | 0.00 | 0.42 | 0.42 | 95 | 1011.6 |
| 20260507132853 | 58 | 67 | 0.0 | 0.9 | 0.00 | 0.42 | 0.42 | 95 | 1011.8 |
| 20260507132349 | 58 | 78 | 0.0 | 0.9 | 0.00 | 0.42 | 0.42 | 95 | 1011.6 |
| 20260507131846 | 58 | 69 | 1.7 | 2.6 | 0.00 | 0.42 | 0.42 | 95 | 1011.6 |
| 20260507131343 | 58 | 74 | 0.0 | 0.9 | 0.00 | 0.42 | 0.42 | 95 | 1011.8 |
| 20260507130840 | 58 | 56 | 0.9 | 1.7 | 0.00 | 0.42 | 0.42 | 95 | 1011.4 |
| 20260507130337 | 58 | 76 | 0.9 | 1.7 | 0.00 | 0.42 | 0.42 | 95 | 1011.8 |
| 20260507125836 | 58 | 81 | 0.0 | 0.9 | 0.00 | 0.42 | 0.42 | 95 | 1011.5 |
| 20260507125333 | 58 | 65 | 0.9 | 0.9 | 0.00 | 0.42 | 0.42 | 95 | 1011.4 |
| 20260507124830 | 58 | 70 | 1.7 | 1.7 | 0.00 | 0.42 | 0.42 | 95 | 1011.7 |
| 20260507124326 | 58 | 46 | 1.7 | 1.7 | 0.00 | 0.42 | 0.42 | 95 | 1011.7 |
| 20260507123825 | 58 | 73 | 0.0 | 0.9 | 0.00 | 0.42 | 0.42 | 95 | 1011.9 |
| 20260507123322 | 58 | 56 | 1.7 | 1.7 | 0.00 | 0.42 | 0.42 | 95 | 1011.9 |
| 20260507122818 | 58 | 40 | 1.7 | 2.6 | 0.00 | 0.42 | 0.42 | 95 | 1011.7 |
| 20260507122313 | 59 | 71 | 1.7 | 1.7 | 0.05 | 0.42 | 0.42 | 96 | 1011.5 |
| 20260507121810 | 59 | 89 | 0.0 | 0.9 | 0.05 | 0.42 | 0.42 | 97 | 1011.3 |
| 20260507121306 | 60 | 67 | 1.7 | 1.7 | 0.00 | 0.41 | 0.41 | 97 | 1010.9 |
| 20260507120802 | 60 | 78 | 0.0 | 0.9 | 0.07 | 0.41 | 0.41 | 97 | 1011.3 |
| 20260507120259 | 60 | 67 | 0.0 | 0.9 | 0.12 | 0.41 | 0.41 | 97 | 1011.6 |
| 20260507115755 | 60 | 77 | 0.0 | 0.9 | 0.12 | 0.40 | 0.40 | 97 | 1011.1 |
| 20260507115251 | 60 | 51 | 1.7 | 2.6 | 0.19 | 0.39 | 0.39 | 97 | 1011.3 |
| 20260507114746 | 60 | 76 | 0.9 | 0.9 | 0.12 | 0.38 | 0.38 | 97 | 1011.2 |
| 20260507114244 | 60 | 61 | 0.0 | 0.9 | 0.07 | 0.37 | 0.37 | 97 | 1011.3 |
| 20260507113741 | 60 | 68 | 0.9 | 0.9 | 0.00 | 0.36 | 0.36 | 97 | 1011.1 |
| 20260507113238 | 60 | 65 | 0.9 | 0.9 | 0.00 | 0.36 | 0.36 | 97 | 1011.4 |
| 20260507112736 | 61 | 66 | 0.9 | 0.9 | 0.00 | 0.36 | 0.36 | 97 | 1011.3 |
| 20260507112232 | 61 | 66 | 0.9 | 0.9 | 0.05 | 0.36 | 0.36 | 97 | 1011.0 |
| 20260507111730 | 61 | 42 | 0.9 | 0.9 | 0.05 | 0.36 | 0.36 | 97 | 1010.8 |
| 20260507111227 | 62 | 57 | 2.6 | 3.5 | 0.12 | 0.35 | 0.35 | 97 | 1011.0 |
| 20260507110723 | 62 | 71 | 0.9 | 0.9 | 0.19 | 0.35 | 0.35 | 97 | 1010.8 |
| 20260507110219 | 63 | 75 | 0.0 | 0.9 | 0.14 | 0.33 | 0.33 | 97 | 1010.9 |
| 20260507105716 | 64 | 68 | 0.9 | 0.9 | 0.19 | 0.32 | 0.32 | 97 | 1010.8 |
| 20260507105212 | 64 | 42 | 0.9 | 1.7 | 0.12 | 0.31 | 0.31 | 97 | 1010.6 |
| 20260507104710 | 65 | 78 | 0.0 | 0.9 | 0.12 | 0.30 | 0.30 | 97 | 1010.4 |
| 20260507104206 | 65 | 80 | 0.0 | 0.0 | 0.05 | 0.29 | 0.29 | 97 | 1010.4 |
| 20260507103702 | 65 | 80 | 0.0 | 0.0 | 0.07 | 0.28 | 0.28 | 97 | 1010.2 |
| 20260507103159 | 65 | 81 | 0.0 | 0.0 | 0.07 | 0.28 | 0.28 | 97 | 1010.0 |
| 20260507102655 | 66 | 81 | 0.0 | 0.0 | 0.00 | 0.27 | 0.27 | 97 | 1009.9 |
| 20260507102152 | 65 | 79 | 0.0 | 0.0 | 0.05 | 0.27 | 0.27 | 97 | 1010.0 |
| 20260507101647 | 66 | 82 | 0.0 | 0.0 | 0.12 | 0.27 | 0.27 | 97 | 1010.2 |
| 20260507101143 | 66 | 73 | 0.0 | 0.0 | 0.12 | 0.26 | 0.26 | 97 | 1010.0 |
| 20260507100641 | 66 | 74 | 0.0 | 0.0 | 0.12 | 0.25 | 0.25 | 97 | 1010.1 |
| 20260507100140 | 66 | 62 | 0.9 | 0.9 | 0.12 | 0.24 | 0.24 | 97 | 1010.1 |
| 20260507095637 | 66 | 92 | 0.9 | 0.9 | 0.12 | 0.23 | 0.23 | 97 | 1009.9 |
| 20260507095133 | 66 | 85 | 0.9 | 0.9 | 0.07 | 0.22 | 0.22 | 97 | 1009.8 |
| 20260507094629 | 66 | 79 | 0.0 | 0.0 | 0.12 | 0.21 | 0.21 | 97 | 1010.0 |
| 20260507094126 | 66 | 77 | 0.0 | 0.9 | 0.19 | 0.21 | 0.21 | 97 | 1010.1 |
| 20260507093624 | 66 | 98 | 1.7 | 1.7 | 0.12 | 0.19 | 0.19 | 96 | 1010.1 |
| 20260507093123 | 66 | 72 | 0.9 | 0.9 | 0.17 | 0.18 | 0.18 | 96 | 1010.0 |
| 20260507092619 | 66 | 61 | 0.9 | 0.9 | 0.47 | 0.17 | 0.17 | 96 | 1009.9 |
| 20260507092115 | 66 | 69 | 0.0 | 0.9 | 0.35 | 0.15 | 0.15 | 96 | 1009.8 |
| 20260507091612 | 66 | 82 | 0.0 | 0.0 | 0.05 | 0.10 | 0.10 | 96 | 1009.7 |
| 20260507091108 | 66 | 68 | 0.0 | 0.9 | 0.00 | 0.09 | 0.09 | 96 | 1009.6 |
| 20260507090604 | 66 | 69 | 0.9 | 0.9 | 0.00 | 0.09 | 0.09 | 96 | 1009.5 |
| 20260507090101 | 66 | 89 | 0.9 | 0.9 | 0.00 | 0.09 | 0.09 | 96 | 1009.3 |
| 20260507085558 | 66 | 75 | 0.0 | 0.9 | 0.00 | 0.09 | 0.09 | 96 | 1009.2 |
| 20260507085055 | 66 | 79 | 0.9 | 0.9 | 0.00 | 0.09 | 0.09 | 96 | 1009.0 |
| 20260507084551 | 66 | 71 | 0.9 | 0.9 | 0.00 | 0.09 | 0.09 | 96 | 1009.1 |
| 20260507084048 | 66 | 85 | 0.9 | 1.7 | 0.00 | 0.09 | 0.09 | 96 | 1009.2 |
| 20260507083545 | 66 | 57 | 0.9 | 1.7 | 0.00 | 0.09 | 0.09 | 96 | 1009.5 |
| 20260507083042 | 66 | 80 | 0.0 | 0.9 | 0.00 | 0.09 | 0.09 | 96 | 1009.2 |
| 20260507082538 | 66 | 83 | 0.0 | 0.9 | 0.00 | 0.09 | 0.09 | 96 | 1009.6 |
| 20260507082034 | 66 | 84 | 0.0 | 0.9 | 0.00 | 0.09 | 0.09 | 96 | 1009.9 |
| 20260507081531 | 66 | 70 | 0.0 | 0.0 | 0.00 | 0.09 | 0.09 | 96 | 1010.0 |
| 20260507081028 | 66 | 83 | 0.0 | 0.9 | 0.00 | 0.09 | 0.09 | 96 | 1009.6 |
| 20260507080523 | 66 | 76 | 0.0 | 0.9 | 0.00 | 0.09 | 0.09 | 96 | 1009.5 |
| 20260507080020 | 66 | 74 | 0.0 | 0.9 | 0.00 | 0.09 | 0.09 | 96 | 1009.1 |
| 20260507075515 | 66 | 79 | 0.0 | 0.0 | 0.07 | 0.09 | 0.09 | 96 | 1009.4 |
| 20260507075012 | 66 | 93 | 0.0 | 0.9 | 0.07 | 0.09 | 0.09 | 96 | 1009.8 |
| 20260507074509 | 67 | 76 | 0.0 | 0.9 | 0.07 | 0.09 | 0.09 | 96 | 1010.0 |
| 20260507074008 | 67 | 82 | 0.0 | 0.9 | 0.00 | 0.08 | 0.08 | 96 | 1009.9 |
| 20260507073503 | 66 | 90 | 0.0 | 0.9 | 0.00 | 0.08 | 0.08 | 96 | 1009.9 |
| 20260507073000 | 66 | 73 | 0.0 | 0.0 | 0.00 | 0.08 | 0.08 | 96 | 1010.0 |
| 20260507072458 | 66 | 79 | 0.0 | 0.9 | 0.00 | 0.08 | 0.08 | 96 | 1009.9 |
| 20260507071954 | 66 | 50 | 0.9 | 1.7 | 0.00 | 0.08 | 0.08 | 96 | 1010.1 |
| 20260507071452 | 66 | 98 | 0.0 | 0.9 | 0.00 | 0.08 | 0.08 | 96 | 1009.8 |
| 20260507070948 | 66 | 102 | 0.9 | 0.9 | 0.00 | 0.08 | 0.08 | 96 | 1010.0 |
| 20260507070446 | 66 | 73 | 0.9 | 1.7 | 0.00 | 0.08 | 0.08 | 96 | 1009.9 |
| 20260507065942 | 66 | 35 | 0.9 | 0.9 | 0.00 | 0.08 | 0.08 | 96 | 1010.1 |
| 20260507065439 | 66 | 81 | 0.9 | 0.9 | 0.00 | 0.08 | 0.08 | 96 | 1010.2 |
| 20260507064936 | 66 | 80 | 0.0 | 0.0 | 0.00 | 0.08 | 0.08 | 96 | 1010.4 |
| 20260507064434 | 66 | 84 | 0.9 | 0.9 | 0.00 | 0.08 | 0.08 | 96 | 1010.1 |
| 20260507063932 | 66 | 73 | 0.0 | 0.9 | 0.00 | 0.08 | 0.08 | 96 | 1010.0 |
| 20260507063428 | 66 | 83 | 0.0 | 0.0 | 0.00 | 0.08 | 0.08 | 95 | 1009.8 |
| 20260507062926 | 66 | 81 | 0.0 | 0.0 | 0.00 | 0.08 | 0.08 | 95 | 1009.8 |
| 20260507062423 | 66 | 83 | 0.0 | 0.0 | 0.00 | 0.08 | 0.08 | 95 | 1010.2 |
| 20260507061920 | 66 | 75 | 0.0 | 0.0 | 0.07 | 0.08 | 0.08 | 95 | 1010.0 |
| 20260507061418 | 66 | 76 | 0.0 | 0.9 | 0.12 | 0.08 | 0.08 | 95 | 1009.7 |
| 20260507060916 | 66 | 83 | 0.0 | 0.0 | 0.12 | 0.07 | 0.07 | 95 | 1009.5 |
| 20260507060413 | 66 | 77 | 0.0 | 0.0 | 0.07 | 0.06 | 0.06 | 94 | 1009.7 |
| 20260507055909 | 66 | 74 | 0.0 | 0.0 | 0.05 | 0.05 | 0.05 | 94 | 1010.0 |
| 20260507055404 | 66 | 81 | 0.0 | 0.9 | 0.05 | 0.05 | 0.05 | 94 | 1010.3 |
| 20260507054902 | 66 | 72 | 0.9 | 0.9 | 0.00 | 0.04 | 0.04 | 94 | 1010.7 |
| 20260507054358 | 66 | 74 | 0.0 | 0.0 | 0.07 | 0.04 | 0.04 | 94 | 1010.9 |
| 20260507053855 | 66 | 65 | 0.0 | 0.9 | 0.07 | 0.04 | 0.04 | 93 | 1010.9 |
| 20260507053353 | 66 | 84 | 1.7 | 2.6 | 0.00 | 0.03 | 0.03 | 93 | 1010.9 |
| 20260507052851 | 66 | 23 | 0.9 | 0.9 | 0.00 | 0.03 | 0.03 | 93 | 1011.0 |
| 20260507052348 | 67 | 82 | 0.9 | 0.9 | 0.00 | 0.03 | 0.03 | 92 | 1011.0 |
| 20260507051845 | 67 | 93 | 0.0 | 0.9 | 0.05 | 0.03 | 0.03 | 92 | 1011.4 |
| 20260507051343 | 67 | 74 | 0.9 | 0.9 | 0.05 | 0.03 | 0.03 | 92 | 1011.2 |
| 20260507050839 | 67 | 76 | 0.0 | 0.9 | 0.00 | 0.02 | 0.02 | 91 | 1011.4 |
| 20260507050336 | 67 | 82 | 0.0 | 0.9 | 0.07 | 0.02 | 0.02 | 91 | 1011.3 |
| 20260507045833 | 67 | 96 | 0.9 | 0.9 | 0.07 | 0.02 | 0.02 | 90 | 1011.4 |
| 20260507045329 | 67 | 87 | 0.0 | 0.9 | 0.00 | 0.01 | 0.01 | 89 | 1011.3 |
| 20260507044827 | 67 | 77 | 0.0 | 0.9 | 0.00 | 0.01 | 0.01 | 89 | 1011.1 |
| 20260507044323 | 68 | 78 | 0.0 | 0.9 | 0.05 | 0.01 | 0.01 | 88 | 1011.2 |
| 20260507043819 | 68 | 71 | 0.0 | 0.0 | 0.05 | 0.01 | 0.01 | 86 | 1010.8 |
| 20260507043316 | 68 | 80 | 0.0 | 0.0 | 0.00 | 0.00 | 0.00 | 85 | 1010.6 |
| 20260507042812 | 69 | 81 | 0.0 | 0.9 | 0.00 | 0.00 | 0.00 | 84 | 1010.8 |
| 20260507042308 | 69 | 89 | 0.9 | 0.9 | 0.00 | 0.00 | 0.00 | 83 | 1010.7 |
| 20260507041805 | 69 | 78 | 0.0 | 0.0 | 0.00 | 0.00 | 0.00 | 81 | 1010.8 |
| 20260507041301 | 70 | 70 | 0.9 | 0.9 | 0.00 | 0.00 | 0.00 | 79 | 1010.8 |
| 20260507040759 | 70 | 93 | 0.9 | 0.9 | 0.00 | 0.00 | 0.00 | 78 | 1010.9 |
| 20260507040255 | 71 | 90 | 0.9 | 0.9 | 0.00 | 0.00 | 0.00 | 77 | 1011.0 |
| 20260507035751 | 71 | 88 | 0.0 | 0.9 | 0.00 | 0.00 | 0.00 | 76 | 1011.0 |
| 20260507035246 | 71 | 83 | 0.0 | 0.9 | 0.00 | 0.00 | 0.00 | 75 | 1010.8 |
| 20260507034744 | 71 | 75 | 0.9 | 0.9 | 0.00 | 0.00 | 0.00 | 75 | 1010.9 |
| 20260507034241 | 71 | 94 | 0.9 | 0.9 | 0.00 | 0.00 | 0.00 | 75 | 1010.8 |
| 20260507033739 | 71 | 77 | 0.0 | 0.9 | 0.00 | 0.00 | 0.00 | 75 | 1010.6 |
| 20260507033236 | 71 | 79 | 0.0 | 0.9 | 0.00 | 0.00 | 0.00 | 74 | 1010.6 |
| 20260507032734 | 71 | 76 | 0.0 | 0.0 | 0.00 | 0.00 | 0.00 | 75 | 1010.5 |
| 20260507032229 | 71 | 74 | 0.0 | 0.0 | 0.00 | 0.00 | 0.00 | 74 | 1010.5 |
| 20260507031726 | 71 | 45 | 0.9 | 0.9 | 0.00 | 0.00 | 0.00 | 74 | 1010.7 |
| 20260507031223 | 71 | 86 | 0.9 | 0.9 | 0.00 | 0.00 | 0.00 | 74 | 1010.5 |
| 20260507030720 | 71 | 89 | 0.9 | 0.9 | 0.00 | 0.00 | 0.00 | 75 | 1010.6 |
| 20260507030217 | 71 | 77 | 0.0 | 0.0 | 0.00 | 0.00 | 0.00 | 74 | 1010.4 |
| 20260507025714 | 71 | 73 | 0.0 | 0.0 | 0.00 | 0.00 | 0.00 | 74 | 1010.3 |
| 20260507025211 | 71 | 71 | 0.9 | 2.6 | 0.00 | 0.00 | 0.00 | 75 | 1010.4 |
| 20260507024710 | 71 | 77 | 0.9 | 0.9 | 0.00 | 0.00 | 0.00 | 75 | 1010.4 |
| 20260507024206 | 71 | 84 | 0.9 | 1.7 | 0.00 | 0.00 | 0.00 | 75 | 1010.8 |
| 20260507023701 | 70 | 90 | 0.9 | 0.9 | 0.00 | 0.00 | 0.00 | 75 | 1010.8 |
| 20260507023159 | 70 | 81 | 0.0 | 0.0 | 0.00 | 0.00 | 0.00 | 75 | 1010.9 |
| 20260507022656 | 71 | 98 | 0.0 | 0.9 | 0.00 | 0.00 | 0.00 | 75 | 1010.9 |
| 20260507022152 | 70 | 85 | 0.0 | 0.9 | 0.00 | 0.00 | 0.00 | 75 | 1011.0 |
| 20260507021648 | 70 | 70 | 0.0 | 0.0 | 0.00 | 0.00 | 0.00 | 75 | 1011.2 |
| 20260507021143 | 71 | 78 | 0.0 | 0.0 | 0.00 | 0.00 | 0.00 | 74 | 1011.0 |
| 20260507020643 | 70 | 80 | 1.7 | 1.7 | 0.00 | 0.00 | 0.00 | 75 | 1010.8 |
| 20260507020138 | 70 | 102 | 0.9 | 0.9 | 0.00 | 0.00 | 0.00 | 75 | 1010.9 |
| 20260507015637 | 70 | 75 | 0.9 | 0.9 | 0.00 | 0.00 | 0.00 | 75 | 1010.7 |
| 20260507015134 | 70 | 80 | 0.0 | 0.9 | 0.00 | 0.00 | 0.00 | 75 | 1010.9 |
| 20260507014630 | 70 | 88 | 0.0 | 0.9 | 0.00 | 0.00 | 0.00 | 75 | 1010.8 |
| 20260507014126 | 70 | 56 | 0.9 | 0.9 | 0.00 | 0.00 | 0.00 | 74 | 1011.2 |
| 20260507013623 | 70 | 80 | 0.0 | 0.0 | 0.00 | 0.00 | 0.00 | 74 | 1010.9 |
| 20260507013120 | 70 | 81 | 0.0 | 0.9 | 0.00 | 0.00 | 0.00 | 74 | 1011.1 |
| 20260507012618 | 70 | 85 | 0.0 | 0.9 | 0.00 | 0.00 | 0.00 | 74 | 1010.6 |
| 20260507012113 | 71 | 61 | 0.0 | 0.9 | 0.00 | 0.00 | 0.00 | 73 | 1010.7 |
| 20260507011611 | 71 | 89 | 0.9 | 0.9 | 0.00 | 0.00 | 0.00 | 73 | 1010.7 |
| 20260507011107 | 70 | 79 | 0.0 | 0.0 | 0.00 | 0.00 | 0.00 | 73 | 1010.7 |
| 20260507010602 | 71 | 81 | 0.0 | 0.0 | 0.00 | 0.00 | 0.00 | 72 | 1010.9 |
| 20260507010058 | 71 | 81 | 0.0 | 0.0 | 0.00 | 0.00 | 0.00 | 71 | 1010.7 |
| 20260507005556 | 71 | 86 | 0.0 | 0.0 | 0.00 | 0.00 | 0.00 | 71 | 1010.7 |
| 20260507005052 | 71 | 82 | 0.9 | 0.9 | 0.00 | 0.00 | 0.00 | 71 | 1011.1 |
| 20260507004549 | 71 | 85 | 0.0 | 0.0 | 0.00 | 0.00 | 0.00 | 70 | 1010.8 |
| 20260507004046 | 72 | 88 | 0.9 | 0.9 | 0.00 | 0.00 | 0.00 | 70 | 1011.1 |
| 20260507003542 | 72 | 80 | 0.0 | 0.0 | 0.00 | 0.00 | 0.00 | 70 | 1011.0 |
| 20260507003037 | 72 | 83 | 0.0 | 0.0 | 0.00 | 0.00 | 0.00 | 69 | 1011.2 |
| 20260507002534 | 72 | 74 | 0.0 | 0.0 | 0.00 | 0.00 | 0.00 | 68 | 1011.2 |
| 20260507002030 | 72 | 75 | 0.0 | 0.9 | 0.00 | 0.00 | 0.00 | 68 | 1010.9 |
| 20260507001527 | 72 | 69 | 0.0 | 0.9 | 0.00 | 0.00 | 0.00 | 68 | 1010.7 |
| 20260507001025 | 73 | 79 | 0.0 | 0.0 | 0.00 | 0.00 | 0.00 | 67 | 1010.6 |
| 20260507000520 | 73 | 76 | 0.0 | 0.9 | 0.00 | 0.00 | 0.00 | 66 | 1011.0 |
| 20260507000016 | 73 | 82 | 0.0 | 0.0 | 0.00 | 0.00 | 0.00 | 66 | 1010.8 |
| 20260506235514 | 74 | 82 | 0.9 | 0.9 | 0.00 | 0.00 | 0.00 | 65 | 1010.7 |
| 20260506235009 | 74 | 40 | 0.9 | 0.9 | 0.00 | 0.00 | 0.00 | 64 | 1010.6 |
| 20260506234507 | 74 | 81 | 0.0 | 0.0 | 0.00 | 0.00 | 0.00 | 64 | 1010.6 |
| 20260506234004 | 74 | 73 | 1.7 | 1.7 | 0.00 | 0.00 | 0.00 | 64 | 1010.3 |
| 20260506233500 | 74 | 337 | 0.9 | 1.7 | 0.00 | 0.00 | 0.00 | 63 | 1010.3 |
| 20260506232957 | 75 | 78 | 0.9 | 1.7 | 0.00 | 0.00 | 0.00 | 62 | 1010.5 |
| 20260506232454 | 75 | 76 | 0.9 | 0.9 | 0.00 | 0.00 | 0.00 | 62 | 1010.3 |
| 20260506231949 | 75 | 86 | 0.0 | 0.9 | 0.00 | 0.00 | 0.00 | 62 | 1010.0 |
| 20260506231447 | 75 | 80 | 0.0 | 0.0 | 0.00 | 0.00 | 0.00 | 61 | 1010.0 |
| 20260506230944 | 75 | 71 | 0.0 | 0.9 | 0.00 | 0.00 | 0.00 | 61 | 1010.3 |
| 20260506230440 | 76 | 81 | 0.9 | 0.9 | 0.00 | 0.00 | 0.00 | 60 | 1010.0 |
| 20260506225937 | 75 | 71 | 0.9 | 0.9 | 0.00 | 0.00 | 0.00 | 60 | 1010.2 |
| 20260506225434 | 76 | 65 | 0.9 | 0.9 | 0.00 | 0.00 | 0.00 | 60 | 1010.0 |
| 20260506224931 | 76 | 66 | 0.9 | 0.9 | 0.00 | 0.00 | 0.00 | 59 | 1010.2 |
| 20260506224428 | 76 | 93 | 0.9 | 0.9 | 0.00 | 0.00 | 0.00 | 59 | 1010.0 |
| 20260506223925 | 76 | 65 | 0.9 | 0.9 | 0.00 | 0.00 | 0.00 | 59 | 1010.1 |
| 20260506223420 | 77 | 87 | 0.9 | 0.9 | 0.00 | 0.00 | 0.00 | 59 | 1010.2 |
| 20260506222918 | 77 | 71 | 0.9 | 0.9 | 0.00 | 0.00 | 0.00 | 58 | 1010.2 |
| 20260506222414 | 77 | 84 | 0.9 | 0.9 | 0.00 | 0.00 | 0.00 | 59 | 1010.4 |
| 20260506221911 | 77 | 57 | 1.7 | 1.7 | 0.00 | 0.00 | 0.00 | 58 | 1010.3 |
| 20260506221408 | 77 | 76 | 0.9 | 0.9 | 0.00 | 0.00 | 0.00 | 57 | 1010.3 |
| 20260506220906 | 77 | 123 | 0.9 | 1.7 | 0.00 | 0.00 | 0.00 | 57 | 1010.4 |
| 20260506220401 | 77 | 86 | 0.0 | 0.9 | 0.00 | 0.00 | 0.00 | 57 | 1010.3 |
| 20260506215858 | 77 | 59 | 1.7 | 2.6 | 0.00 | 0.00 | 0.00 | 57 | 1010.2 |
| 20260506215354 | 76 | 87 | 0.9 | 0.9 | 0.00 | 0.00 | 0.00 | 59 | 1010.2 |
| 20260506214850 | 76 | 79 | 0.9 | 1.7 | 0.00 | 0.00 | 0.00 | 58 | 1010.1 |
| 20260506214347 | 76 | 100 | 0.9 | 0.9 | 0.00 | 0.00 | 0.00 | 59 | 1010.2 |
| 20260506213845 | 76 | 110 | 0.9 | 1.7 | 0.00 | 0.00 | 0.00 | 59 | 1010.2 |
| 20260506213342 | 76 | 69 | 0.0 | 0.9 | 0.00 | 0.00 | 0.00 | 59 | 1010.0 |
| 20260506212839 | 76 | 81 | 0.9 | 0.9 | 0.00 | 0.00 | 0.00 | 58 | 1010.2 |
| 20260506212335 | 76 | 104 | 1.7 | 1.7 | 0.00 | 0.00 | 0.00 | 58 | 1010.2 |
| 20260506211830 | 76 | 77 | 1.7 | 2.6 | 0.00 | 0.00 | 0.00 | 58 | 1010.4 |
| 20260506211326 | 76 | 104 | 0.9 | 0.9 | 0.00 | 0.00 | 0.00 | 58 | 1010.1 |
| 20260506210824 | 76 | 56 | 0.9 | 0.9 | 0.00 | 0.00 | 0.00 | 57 | 1009.9 |
| 20260506210321 | 76 | 87 | 0.9 | 0.9 | 0.00 | 0.00 | 0.00 | 58 | 1009.7 |
| 20260506205818 | 76 | 59 | 0.9 | 1.7 | 0.00 | 0.00 | 0.00 | 58 | 1010.0 |
| 20260506205314 | 76 | 99 | 0.9 | 1.7 | 0.00 | 0.00 | 0.00 | 57 | 1009.6 |
| 20260506204810 | 76 | 71 | 0.9 | 1.7 | 0.00 | 0.00 | 0.00 | 57 | 1009.9 |
| 20260506204308 | 76 | 142 | 0.9 | 1.7 | 0.00 | 0.00 | 0.00 | 58 | 1009.6 |
| 20260506203806 | 76 | 53 | 1.7 | 1.7 | 0.00 | 0.00 | 0.00 | 58 | 1009.9 |
| 20260506203303 | 77 | 30 | 1.7 | 2.6 | 0.00 | 0.00 | 0.00 | 57 | 1009.7 |
| 20260506202759 | 77 | 87 | 0.9 | 1.7 | 0.00 | 0.00 | 0.00 | 57 | 1009.8 |
| 20260506202256 | 76 | 72 | 0.9 | 0.9 | 0.00 | 0.00 | 0.00 | 57 | 1009.8 |
| 20260506201753 | 77 | 20 | 2.6 | 2.6 | 0.00 | 0.00 | 0.00 | 57 | 1010.0 |
| 20260506201249 | 77 | 69 | 1.7 | 2.6 | 0.00 | 0.00 | 0.00 | 56 | 1009.9 |
| 20260506200747 | 77 | 81 | 1.7 | 1.7 | 0.00 | 0.00 | 0.00 | 56 | 1010.1 |
| 20260506200243 | 77 | 84 | 0.9 | 0.9 | 0.00 | 0.00 | 0.00 | 57 | 1010.0 |
| 20260506195739 | 77 | 80 | 0.0 | 0.9 | 0.00 | 0.00 | 0.00 | 57 | 1010.1 |
| 20260506195236 | 77 | 87 | 1.7 | 1.7 | 0.00 | 0.00 | 0.00 | 56 | 1010.5 |
| 20260506194733 | 77 | 58 | 0.9 | 1.7 | 0.00 | 0.00 | 0.00 | 57 | 1010.4 |
| 20260506194230 | 76 | 89 | 1.7 | 1.7 | 0.00 | 0.00 | 0.00 | 57 | 1010.9 |
| 20260506193728 | 76 | 114 | 1.7 | 2.6 | 0.00 | 0.00 | 0.00 | 59 | 1010.9 |
| 20260506193224 | 76 | 18 | 3.5 | 5.2 | 0.00 | 0.00 | 0.00 | 58 | 1010.8 |
| 20260506192721 | 75 | 78 | 0.9 | 1.7 | 0.00 | 0.00 | 0.00 | 62 | 1011.2 |
| 20260506192218 | 74 | 73 | 0.0 | 0.9 | 0.00 | 0.00 | 0.00 | 65 | 1011.3 |
| 20260506191714 | 73 | 81 | 0.0 | 0.9 | 0.00 | 0.00 | 0.00 | 69 | 1011.6 |
| 20260506191210 | 73 | 75 | 0.9 | 0.9 | 0.00 | 0.00 | 0.00 | 69 | 1011.5 |
| 20260506190708 | 72 | 91 | 0.0 | 0.9 | 0.00 | 0.00 | 0.00 | 73 | 1011.6 |
| 20260506190204 | 73 | 81 | 0.0 | 0.0 | 0.00 | 0.00 | 0.00 | 72 | 1012.0 |
| 20260506185702 | 73 | 80 | 0.0 | 0.0 | 0.00 | 0.00 | 0.00 | 70 | 1011.9 |
| 20260506185158 | 75 | 79 | 0.0 | 0.0 | 0.00 | 0.00 | 0.00 | 68 | 1011.9 |
| 20260506184656 | 76 | 101 | 1.7 | 1.7 | 0.00 | 0.00 | 0.00 | 63 | 1012.0 |
| 20260506184153 | 77 | 78 | 0.0 | 0.9 | 0.00 | 0.00 | 0.00 | 57 | 1011.8 |
| 20260506183649 | 78 | 74 | 1.7 | 1.7 | 0.00 | 0.00 | 0.00 | 55 | 1012.2 |
| 20260506183145 | 78 | 86 | 0.9 | 0.9 | 0.00 | 0.00 | 0.00 | 56 | 1011.7 |
| 20260506182643 | 77 | 32 | 1.7 | 2.6 | 0.00 | 0.00 | 0.00 | 56 | 1012.0 |
| 20260506182139 | 76 | 72 | 0.9 | 0.9 | 0.00 | 0.00 | 0.00 | 58 | 1011.9 |
| 20260506181638 | 76 | 67 | 0.9 | 0.9 | 0.00 | 0.00 | 0.00 | 58 | 1011.8 |
| 20260506181134 | 77 | 55 | 1.7 | 1.7 | 0.00 | 0.00 | 0.00 | 57 | 1012.0 |
| 20260506180631 | 77 | 102 | 0.9 | 0.9 | 0.00 | 0.00 | 0.00 | 56 | 1012.2 |
| 20260506180128 | 77 | 145 | 1.7 | 3.5 | 0.00 | 0.00 | 0.00 | 56 | 1012.0 |
| 20260506175624 | 77 | 147 | 1.7 | 2.6 | 0.00 | 0.00 | 0.00 | 57 | 1012.2 |
| 20260506175120 | 77 | 356 | 1.7 | 2.6 | 0.00 | 0.00 | 0.00 | 58 | 1012.1 |
| 20260506174619 | 78 | 91 | 1.7 | 2.6 | 0.00 | 0.00 | 0.00 | 56 | 1012.1 |
| 20260506174115 | 77 | 65 | 1.7 | 3.5 | 0.00 | 0.00 | 0.00 | 58 | 1012.1 |
| 20260506173613 | 76 | 180 | 0.9 | 1.7 | 0.00 | 0.00 | 0.00 | 60 | 1012.4 |
| 20260506173109 | 76 | 142 | 1.7 | 2.6 | 0.00 | 0.00 | 0.00 | 59 | 1012.4 |
| 20260506172607 | 76 | 46 | 1.7 | 1.7 | 0.00 | 0.00 | 0.00 | 59 | 1012.2 |
| 20260506172103 | 76 | 85 | 1.7 | 1.7 | 0.00 | 0.00 | 0.00 | 60 | 1012.5 |
| 20260506171601 | 76 | 73 | 0.9 | 1.7 | 0.00 | 0.00 | 0.00 | 61 | 1012.4 |
| 20260506171058 | 75 | 76 | 0.9 | 1.7 | 0.00 | 0.00 | 0.00 | 62 | 1012.7 |
| 20260506170555 | 73 | 80 | 1.7 | 2.6 | 0.00 | 0.00 | 0.00 | 64 | 1012.8 |
| 20260506170053 | 73 | 82 | 0.0 | 0.9 | 0.00 | 0.00 | 0.00 | 64 | 1013.1 |
| 20260506165551 | 73 | 81 | 1.7 | 1.7 | 0.00 | 0.00 | 0.00 | 65 | 1013.3 |
| 20260506165047 | 73 | 85 | 0.9 | 1.7 | 0.00 | 0.00 | 0.00 | 65 | 1013.4 |
| 20260506164544 | 73 | 91 | 0.0 | 0.9 | 0.00 | 0.00 | 0.00 | 64 | 1013.4 |
| 20260506164042 | 73 | 82 | 0.9 | 1.7 | 0.00 | 0.00 | 0.00 | 65 | 1013.5 |
| 20260506163537 | 72 | 97 | 1.7 | 1.7 | 0.00 | 0.00 | 0.00 | 66 | 1013.5 |
| 20260506163033 | 72 | 77 | 0.0 | 0.9 | 0.00 | 0.00 | 0.00 | 67 | 1013.5 |
| 20260506162530 | 72 | 83 | 1.7 | 1.7 | 0.00 | 0.00 | 0.00 | 67 | 1013.5 |
| 20260506162027 | 72 | 219 | 0.9 | 1.7 | 0.00 | 0.00 | 0.00 | 68 | 1013.4 |
| 20260506161525 | 72 | 86 | 0.9 | 1.7 | 0.00 | 0.00 | 0.00 | 67 | 1013.6 |
| 20260506161021 | 71 | 48 | 2.6 | 2.6 | 0.00 | 0.00 | 0.00 | 67 | 1013.5 |
| 20260506160519 | 71 | 95 | 1.7 | 2.6 | 0.00 | 0.00 | 0.00 | 67 | 1013.5 |
| 20260506160016 | 72 | 85 | 0.0 | 0.9 | 0.00 | 0.00 | 0.00 | 67 | 1013.5 |
| 20260506155514 | 71 | 102 | 0.9 | 1.7 | 0.00 | 0.00 | 0.00 | 68 | 1013.5 |
| 20260506153646 | 71 | 34 | 1.7 | 2.6 | 0.00 | 0.00 | 0.00 | 70 | 1013.9 |
| 20260506153143 | 70 | 53 | 0.9 | 0.9 | 0.00 | 0.00 | 0.00 | 71 | 1014.0 |
| 20260506152639 | 70 | 71 | 1.7 | 2.6 | 0.00 | 0.00 | 0.00 | 71 | 1013.9 |
| 20260506152137 | 70 | 92 | 1.7 | 2.6 | 0.00 | 0.00 | 0.00 | 72 | 1013.9 |
| 20260506151636 | 69 | 90 | 0.9 | 0.9 | 0.00 | 0.00 | 0.00 | 73 | 1013.9 |